sensor_id;sensor_type;location;lat;lon;timestamp;pressure;altitude;pressure_sealevel;temperature;humidity
36092;BME280;22147;52.388;13.390;2023-02-02T00:00:36;100226.56;;;2.44;100.00
36092;BME280;22147;52.388;13.390;2023-02-02T00:03:06;100234.16;;;2.52;100.00
36092;BME280;22147;52.388;13.390;2023-02-02T00:05:37;100211.66;;;2.55;100.00
36092;BME280;22147;52.388;13.390;2023-02-02T00:08:07;100216.34;;;2.50;100.00
36092;BME280;22147;52.388;13.390;2023-02-02T00:10:37;100221.41;;;2.67;100.00
36092;BME280;22147;52.388;13.390;2023-02-02T00:13:06;100215.63;;;2.73;100.00
36092;BME280;22147;52.388;13.390;2023-02-02T00:15:38;100205.91;;;2.86;100.00
36092;BME280;22147;52.388;13.390;2023-02-02T00:18:07;100185.19;;;2.99;100.00
36092;BME280;22147;52.388;13.390;2023-02-02T00:20:37;100199.53;;;2.91;100.00
36092;BME280;22147;52.388;13.390;2023-02-02T00:23:07;100211.22;;;3.01;100.00
36092;BME280;22147;52.388;13.390;2023-02-02T00:25:37;100222.66;;;3.09;100.00
36092;BME280;22147;52.388;13.390;2023-02-02T00:28:06;100213.28;;;3.15;100.00
36092;BME280;22147;52.388;13.390;2023-02-02T00:30:36;100203.25;;;3.29;100.00
36092;BME280;22147;52.388;13.390;2023-02-02T00:33:06;100204.38;;;3.28;100.00
36092;BME280;22147;52.388;13.390;2023-02-02T00:35:39;100210.25;;;3.16;100.00
36092;BME280;22147;52.388;13.390;2023-02-02T00:38:09;100211.69;;;3.09;100.00
36092;BME280;22147;52.388;13.390;2023-02-02T00:40:39;100202.13;;;3.06;100.00
36092;BME280;22147;52.388;13.390;2023-02-02T00:43:07;100203.94;;;3.16;100.00
36092;BME280;22147;52.388;13.390;2023-02-02T00:45:37;100207.59;;;3.30;100.00
36092;BME280;22147;52.388;13.390;2023-02-02T00:48:07;100214.69;;;3.36;100.00
36092;BME280;22147;52.388;13.390;2023-02-02T00:50:39;100197.88;;;3.43;100.00
36092;BME280;22147;52.388;13.390;2023-02-02T00:53:09;100194.25;;;3.47;100.00
36092;BME280;22147;52.388;13.390;2023-02-02T00:55:38;100180.41;;;3.58;100.00
36092;BME280;22147;52.388;13.390;2023-02-02T00:58:06;100183.03;;;3.44;100.00
36092;BME280;22147;52.388;13.390;2023-02-02T01:00:35;100181.09;;;3.44;100.00
36092;BME280;22147;52.388;13.390;2023-02-02T01:03:04;100210.88;;;3.56;100.00
36092;BME280;22147;52.388;13.390;2023-02-02T01:05:35;100217.53;;;3.50;100.00
36092;BME280;22147;52.388;13.390;2023-02-02T01:08:03;100198.31;;;3.50;100.00
36092;BME280;22147;52.388;13.390;2023-02-02T01:10:33;100210.72;;;3.47;100.00
36092;BME280;22147;52.388;13.390;2023-02-02T01:13:03;100196.75;;;3.44;100.00
36092;BME280;22147;52.388;13.390;2023-02-02T01:15:33;100217.09;;;3.43;100.00
36092;BME280;22147;52.388;13.390;2023-02-02T01:18:03;100210.31;;;3.35;100.00
36092;BME280;22147;52.388;13.390;2023-02-02T01:20:33;100216.75;;;3.50;100.00
36092;BME280;22147;52.388;13.390;2023-02-02T01:23:03;100227.03;;;3.39;100.00
36092;BME280;22147;52.388;13.390;2023-02-02T01:25:33;100204.56;;;3.32;100.00
36092;BME280;22147;52.388;13.390;2023-02-02T01:28:07;100205.09;;;3.34;100.00
36092;BME280;22147;52.388;13.390;2023-02-02T01:30:37;100207.84;;;3.34;100.00
36092;BME280;22147;52.388;13.390;2023-02-02T01:33:07;100209.16;;;3.41;100.00
36092;BME280;22147;52.388;13.390;2023-02-02T01:35:48;100215.72;;;3.40;100.00
36092;BME280;22147;52.388;13.390;2023-02-02T01:38:23;100222.97;;;3.31;100.00
36092;BME280;22147;52.388;13.390;2023-02-02T01:40:55;100227.75;;;3.44;100.00
36092;BME280;22147;52.388;13.390;2023-02-02T01:46:32;100237.59;;;3.26;100.00
36092;BME280;22147;52.388;13.390;2023-02-02T01:49:12;100236.25;;;3.24;100.00
36092;BME280;22147;52.388;13.390;2023-02-02T01:51:58;100217.16;;;3.14;100.00
36092;BME280;22147;52.388;13.390;2023-02-02T01:54:39;100241.06;;;3.08;100.00
36092;BME280;22147;52.388;13.390;2023-02-02T01:57:39;100223.78;;;3.08;100.00
36092;BME280;22147;52.388;13.390;2023-02-02T02:00:17;100235.22;;;3.15;100.00
36092;BME280;22147;52.388;13.390;2023-02-02T02:03:01;100224.88;;;3.06;100.00
36092;BME280;22147;52.388;13.390;2023-02-02T02:05:43;100219.31;;;2.88;100.00
36092;BME280;22147;52.388;13.390;2023-02-02T02:08:25;100228.56;;;2.97;100.00
36092;BME280;22147;52.388;13.390;2023-02-02T02:10:58;100243.16;;;2.92;100.00
36092;BME280;22147;52.388;13.390;2023-02-02T02:13:34;100249.16;;;2.94;100.00
36092;BME280;22147;52.388;13.390;2023-02-02T02:17:06;100236.25;;;2.95;100.00
36092;BME280;22147;52.388;13.390;2023-02-02T02:36:39;100259.06;;;3.19;100.00
36092;BME280;22147;52.388;13.390;2023-02-02T02:39:50;100247.66;;;3.07;100.00
36092;BME280;22147;52.388;13.390;2023-02-02T02:42:30;100244.75;;;3.22;100.00
36092;BME280;22147;52.388;13.390;2023-02-02T02:45:08;100245.41;;;3.14;100.00
36092;BME280;22147;52.388;13.390;2023-02-02T02:47:42;100250.50;;;3.26;100.00
36092;BME280;22147;52.388;13.390;2023-02-02T02:50:12;100244.13;;;3.31;100.00
36092;BME280;22147;52.388;13.390;2023-02-02T02:52:45;100260.59;;;3.31;100.00
36092;BME280;22147;52.388;13.390;2023-02-02T02:55:18;100247.69;;;3.31;100.00
36092;BME280;22147;52.388;13.390;2023-02-02T02:57:57;100269.00;;;3.39;100.00
36092;BME280;22147;52.388;13.390;2023-02-02T03:01:01;100272.84;;;3.38;100.00
36092;BME280;22147;52.388;13.390;2023-02-02T03:07:17;100277.06;;;3.31;100.00
36092;BME280;22147;52.388;13.390;2023-02-02T03:10:10;100274.41;;;3.20;100.00
36092;BME280;22147;52.388;13.390;2023-02-02T03:12:49;100283.00;;;3.14;100.00
36092;BME280;22147;52.388;13.390;2023-02-02T03:15:20;100294.19;;;3.17;100.00
36092;BME280;22147;52.388;13.390;2023-02-02T03:17:53;100297.09;;;3.31;100.00
36092;BME280;22147;52.388;13.390;2023-02-02T03:20:23;100298.16;;;3.35;100.00
36092;BME280;22147;52.388;13.390;2023-02-02T03:22:53;100306.94;;;3.32;100.00
36092;BME280;22147;52.388;13.390;2023-02-02T03:25:23;100304.03;;;3.23;100.00
36092;BME280;22147;52.388;13.390;2023-02-02T03:27:54;100323.28;;;3.18;100.00
36092;BME280;22147;52.388;13.390;2023-02-02T03:30:25;100329.66;;;3.14;100.00
36092;BME280;22147;52.388;13.390;2023-02-02T03:32:56;100327.97;;;3.18;100.00
36092;BME280;22147;52.388;13.390;2023-02-02T03:35:26;100330.03;;;3.31;100.00
36092;BME280;22147;52.388;13.390;2023-02-02T03:37:57;100331.53;;;3.18;100.00
36092;BME280;22147;52.388;13.390;2023-02-02T03:40:27;100350.47;;;3.15;100.00
36092;BME280;22147;52.388;13.390;2023-02-02T03:42:58;100341.06;;;3.26;100.00
36092;BME280;22147;52.388;13.390;2023-02-02T03:45:29;100357.53;;;3.26;100.00
36092;BME280;22147;52.388;13.390;2023-02-02T03:48:03;100357.28;;;3.22;100.00
36092;BME280;22147;52.388;13.390;2023-02-02T03:50:36;100359.53;;;3.15;100.00
36092;BME280;22147;52.388;13.390;2023-02-02T03:53:06;100360.22;;;3.31;100.00
36092;BME280;22147;52.388;13.390;2023-02-02T03:55:36;100370.22;;;3.17;100.00
36092;BME280;22147;52.388;13.390;2023-02-02T03:58:09;100380.44;;;3.11;100.00
36092;BME280;22147;52.388;13.390;2023-02-02T04:00:39;100377.06;;;3.19;100.00
36092;BME280;22147;52.388;13.390;2023-02-02T04:03:09;100386.94;;;3.20;100.00
36092;BME280;22147;52.388;13.390;2023-02-02T04:05:39;100389.09;;;3.23;100.00
36092;BME280;22147;52.388;13.390;2023-02-02T04:08:09;100384.75;;;3.22;100.00
36092;BME280;22147;52.388;13.390;2023-02-02T04:10:41;100392.97;;;3.22;100.00
36092;BME280;22147;52.388;13.390;2023-02-02T04:13:11;100399.81;;;3.25;100.00
36092;BME280;22147;52.388;13.390;2023-02-02T04:15:41;100399.53;;;3.26;100.00
36092;BME280;22147;52.388;13.390;2023-02-02T04:18:09;100404.75;;;3.28;100.00
36092;BME280;22147;52.388;13.390;2023-02-02T04:20:38;100412.66;;;3.30;100.00
36092;BME280;22147;52.388;13.390;2023-02-02T04:23:06;100409.06;;;3.34;100.00
36092;BME280;22147;52.388;13.390;2023-02-02T04:25:35;100407.72;;;3.32;100.00
36092;BME280;22147;52.388;13.390;2023-02-02T04:28:03;100419.56;;;3.27;100.00
36092;BME280;22147;52.388;13.390;2023-02-02T04:30:32;100416.75;;;3.32;100.00
36092;BME280;22147;52.388;13.390;2023-02-02T04:33:00;100429.78;;;3.16;100.00
36092;BME280;22147;52.388;13.390;2023-02-02T04:35:28;100426.78;;;3.18;100.00
36092;BME280;22147;52.388;13.390;2023-02-02T04:37:57;100446.66;;;3.34;100.00
36092;BME280;22147;52.388;13.390;2023-02-02T04:40:25;100450.03;;;3.25;100.00
36092;BME280;22147;52.388;13.390;2023-02-02T04:42:56;100457.66;;;3.34;100.00
36092;BME280;22147;52.388;13.390;2023-02-02T04:45:25;100451.59;;;3.37;100.00
36092;BME280;22147;52.388;13.390;2023-02-02T04:47:54;100461.13;;;3.44;100.00
36092;BME280;22147;52.388;13.390;2023-02-02T04:50:23;100455.91;;;3.48;100.00
36092;BME280;22147;52.388;13.390;2023-02-02T04:52:51;100474.88;;;3.44;100.00
36092;BME280;22147;52.388;13.390;2023-02-02T04:55:20;100465.34;;;3.37;100.00
36092;BME280;22147;52.388;13.390;2023-02-02T04:57:48;100482.34;;;3.34;100.00
36092;BME280;22147;52.388;13.390;2023-02-02T05:00:17;100479.13;;;3.26;100.00
36092;BME280;22147;52.388;13.390;2023-02-02T05:02:45;100481.63;;;3.23;100.00
36092;BME280;22147;52.388;13.390;2023-02-02T05:05:14;100489.28;;;3.26;100.00
36092;BME280;22147;52.388;13.390;2023-02-02T05:07:42;100477.69;;;3.34;100.00
36092;BME280;22147;52.388;13.390;2023-02-02T05:10:11;100498.34;;;3.21;100.00
36092;BME280;22147;52.388;13.390;2023-02-02T05:12:39;100496.94;;;3.29;100.00
36092;BME280;22147;52.388;13.390;2023-02-02T05:15:08;100504.16;;;3.20;100.00
36092;BME280;22147;52.388;13.390;2023-02-02T05:17:35;100521.66;;;3.29;100.00
36092;BME280;22147;52.388;13.390;2023-02-02T05:20:04;100510.59;;;3.39;100.00
36092;BME280;22147;52.388;13.390;2023-02-02T05:22:32;100518.91;;;3.29;100.00
36092;BME280;22147;52.388;13.390;2023-02-02T05:25:01;100528.84;;;3.20;100.00
36092;BME280;22147;52.388;13.390;2023-02-02T05:27:29;100534.56;;;3.29;100.00
36092;BME280;22147;52.388;13.390;2023-02-02T05:29:58;100533.22;;;3.26;100.00
36092;BME280;22147;52.388;13.390;2023-02-02T05:32:26;100539.25;;;3.23;100.00
36092;BME280;22147;52.388;13.390;2023-02-02T05:34:58;100555.13;;;3.31;100.00
36092;BME280;22147;52.388;13.390;2023-02-02T05:37:26;100555.94;;;3.37;100.00
36092;BME280;22147;52.388;13.390;2023-02-02T05:39:55;100543.28;;;3.36;100.00
36092;BME280;22147;52.388;13.390;2023-02-02T05:42:23;100552.09;;;3.33;100.00
36092;BME280;22147;52.388;13.390;2023-02-02T05:44:52;100557.91;;;3.26;100.00
36092;BME280;22147;52.388;13.390;2023-02-02T05:47:20;100559.75;;;3.36;100.00
36092;BME280;22147;52.388;13.390;2023-02-02T05:49:48;100565.84;;;3.28;100.00
36092;BME280;22147;52.388;13.390;2023-02-02T05:52:22;100569.66;;;3.32;100.00
36092;BME280;22147;52.388;13.390;2023-02-02T05:54:54;100573.75;;;3.39;100.00
36092;BME280;22147;52.388;13.390;2023-02-02T05:57:24;100582.75;;;3.45;100.00
36092;BME280;22147;52.388;13.390;2023-02-02T05:59:54;100583.66;;;3.35;100.00
36092;BME280;22147;52.388;13.390;2023-02-02T06:02:24;100583.06;;;3.43;100.00
36092;BME280;22147;52.388;13.390;2023-02-02T06:04:54;100586.63;;;3.44;100.00
36092;BME280;22147;52.388;13.390;2023-02-02T06:07:24;100585.22;;;3.46;100.00
36092;BME280;22147;52.388;13.390;2023-02-02T06:09:54;100594.91;;;3.34;100.00
36092;BME280;22147;52.388;13.390;2023-02-02T06:12:24;100599.09;;;3.26;100.00
36092;BME280;22147;52.388;13.390;2023-02-02T06:14:54;100598.25;;;3.25;100.00
36092;BME280;22147;52.388;13.390;2023-02-02T06:17:24;100610.56;;;3.33;100.00
36092;BME280;22147;52.388;13.390;2023-02-02T06:19:55;100610.84;;;3.32;100.00
36092;BME280;22147;52.388;13.390;2023-02-02T06:22:25;100625.69;;;3.25;100.00
36092;BME280;22147;52.388;13.390;2023-02-02T06:24:55;100622.09;;;3.30;100.00
36092;BME280;22147;52.388;13.390;2023-02-02T06:27:25;100630.41;;;3.20;100.00
36092;BME280;22147;52.388;13.390;2023-02-02T06:29:55;100632.06;;;3.16;100.00
36092;BME280;22147;52.388;13.390;2023-02-02T06:32:28;100630.94;;;3.17;100.00
36092;BME280;22147;52.388;13.390;2023-02-02T06:34:59;100640.88;;;3.08;100.00
36092;BME280;22147;52.388;13.390;2023-02-02T06:37:29;100645.78;;;3.16;100.00
36092;BME280;22147;52.388;13.390;2023-02-02T06:39:59;100651.31;;;3.00;100.00
36092;BME280;22147;52.388;13.390;2023-02-02T06:42:29;100640.88;;;3.02;100.00
36092;BME280;22147;52.388;13.390;2023-02-02T06:44:59;100660.34;;;3.06;100.00
36092;BME280;22147;52.388;13.390;2023-02-02T06:47:32;100652.16;;;3.01;100.00
36092;BME280;22147;52.388;13.390;2023-02-02T06:50:03;100663.38;;;3.10;100.00
36092;BME280;22147;52.388;13.390;2023-02-02T06:52:34;100665.53;;;3.13;100.00
36092;BME280;22147;52.388;13.390;2023-02-02T06:55:04;100660.38;;;2.96;100.00
36092;BME280;22147;52.388;13.390;2023-02-02T06:57:34;100672.16;;;3.12;100.00
36092;BME280;22147;52.388;13.390;2023-02-02T07:00:05;100690.25;;;3.13;100.00
36092;BME280;22147;52.388;13.390;2023-02-02T07:02:36;100689.94;;;3.19;100.00
36092;BME280;22147;52.388;13.390;2023-02-02T07:05:06;100694.09;;;3.12;100.00
36092;BME280;22147;52.388;13.390;2023-02-02T07:07:36;100693.56;;;3.10;100.00
36092;BME280;22147;52.388;13.390;2023-02-02T07:10:07;100696.84;;;3.12;100.00
36092;BME280;22147;52.388;13.390;2023-02-02T07:12:57;100700.16;;;2.98;100.00
36092;BME280;22147;52.388;13.390;2023-02-02T07:15:26;100704.56;;;2.94;100.00
36092;BME280;22147;52.388;13.390;2023-02-02T07:17:54;100712.50;;;3.11;100.00
36092;BME280;22147;52.388;13.390;2023-02-02T07:20:23;100723.19;;;3.18;100.00
36092;BME280;22147;52.388;13.390;2023-02-02T07:22:51;100728.38;;;3.24;100.00
36092;BME280;22147;52.388;13.390;2023-02-02T07:25:20;100730.56;;;3.22;100.00
36092;BME280;22147;52.388;13.390;2023-02-02T07:27:54;100737.72;;;3.13;100.00
36092;BME280;22147;52.388;13.390;2023-02-02T07:30:24;100751.97;;;3.15;100.00
36092;BME280;22147;52.388;13.390;2023-02-02T07:32:58;100739.94;;;3.11;100.00
36092;BME280;22147;52.388;13.390;2023-02-02T07:35:29;100753.66;;;3.06;100.00
36092;BME280;22147;52.388;13.390;2023-02-02T07:37:59;100757.50;;;3.10;100.00
36092;BME280;22147;52.388;13.390;2023-02-02T07:40:29;100756.91;;;3.13;100.00
36092;BME280;22147;52.388;13.390;2023-02-02T07:42:59;100753.91;;;3.15;100.00
36092;BME280;22147;52.388;13.390;2023-02-02T07:45:31;100768.75;;;3.03;100.00
36092;BME280;22147;52.388;13.390;2023-02-02T07:48:01;100765.47;;;3.12;100.00
36092;BME280;22147;52.388;13.390;2023-02-02T07:50:31;100756.63;;;3.25;100.00
36092;BME280;22147;52.388;13.390;2023-02-02T07:53:01;100761.28;;;3.30;100.00
36092;BME280;22147;52.388;13.390;2023-02-02T07:55:31;100770.88;;;3.32;100.00
36092;BME280;22147;52.388;13.390;2023-02-02T07:58:01;100774.72;;;3.41;100.00
36092;BME280;22147;52.388;13.390;2023-02-02T08:00:32;100781.31;;;3.45;100.00
36092;BME280;22147;52.388;13.390;2023-02-02T08:03:02;100786.47;;;3.57;100.00
36092;BME280;22147;52.388;13.390;2023-02-02T08:05:30;100793.63;;;3.53;100.00
36092;BME280;22147;52.388;13.390;2023-02-02T08:07:59;100790.31;;;3.51;100.00
36092;BME280;22147;52.388;13.390;2023-02-02T08:10:27;100796.34;;;3.53;100.00
36092;BME280;22147;52.388;13.390;2023-02-02T08:12:55;100804.66;;;3.38;100.00
36092;BME280;22147;52.388;13.390;2023-02-02T08:15:24;100800.28;;;3.26;100.00
36092;BME280;22147;52.388;13.390;2023-02-02T08:17:52;100811.78;;;3.34;100.00
36092;BME280;22147;52.388;13.390;2023-02-02T08:20:21;100810.69;;;3.30;100.00
36092;BME280;22147;52.388;13.390;2023-02-02T08:22:48;100815.09;;;3.31;100.00
36092;BME280;22147;52.388;13.390;2023-02-02T08:25:17;100823.88;;;3.43;100.00
36092;BME280;22147;52.388;13.390;2023-02-02T08:27:45;100815.59;;;3.48;100.00
36092;BME280;22147;52.388;13.390;2023-02-02T08:30:14;100821.09;;;3.48;100.00
36092;BME280;22147;52.388;13.390;2023-02-02T08:32:42;100824.94;;;3.52;100.00
36092;BME280;22147;52.388;13.390;2023-02-02T08:35:14;100824.66;;;3.59;100.00
36092;BME280;22147;52.388;13.390;2023-02-02T08:37:42;100827.34;;;3.74;100.00
36092;BME280;22147;52.388;13.390;2023-02-02T08:40:11;100841.31;;;3.83;100.00
36092;BME280;22147;52.388;13.390;2023-02-02T08:42:39;100836.94;;;3.82;100.00
36092;BME280;22147;52.388;13.390;2023-02-02T08:45:08;100844.88;;;3.88;100.00
36092;BME280;22147;52.388;13.390;2023-02-02T08:47:58;100839.16;;;3.75;100.00
36092;BME280;22147;52.388;13.390;2023-02-02T08:50:40;100841.09;;;3.64;100.00
36092;BME280;22147;52.388;13.390;2023-02-02T08:53:10;100838.91;;;3.71;100.00
36092;BME280;22147;52.388;13.390;2023-02-02T08:55:40;100842.94;;;3.89;100.00
36092;BME280;22147;52.388;13.390;2023-02-02T08:58:10;100841.03;;;3.90;100.00
36092;BME280;22147;52.388;13.390;2023-02-02T09:00:40;100841.50;;;4.02;100.00
36092;BME280;22147;52.388;13.390;2023-02-02T09:03:11;100844.72;;;4.24;100.00
36092;BME280;22147;52.388;13.390;2023-02-02T09:05:41;100847.38;;;4.40;100.00
36092;BME280;22147;52.388;13.390;2023-02-02T09:08:11;100847.84;;;4.57;100.00
36092;BME280;22147;52.388;13.390;2023-02-02T09:10:41;100851.31;;;4.73;100.00
36092;BME280;22147;52.388;13.390;2023-02-02T09:13:11;100852.44;;;4.72;100.00
36092;BME280;22147;52.388;13.390;2023-02-02T09:15:41;100863.03;;;4.89;100.00
36092;BME280;22147;52.388;13.390;2023-02-02T09:18:11;100863.81;;;4.95;100.00
36092;BME280;22147;52.388;13.390;2023-02-02T09:20:41;100866.41;;;4.81;100.00
36092;BME280;22147;52.388;13.390;2023-02-02T09:23:12;100868.78;;;4.93;100.00
36092;BME280;22147;52.388;13.390;2023-02-02T09:25:42;100880.69;;;4.83;100.00
36092;BME280;22147;52.388;13.390;2023-02-02T09:28:12;100883.72;;;4.81;100.00
36092;BME280;22147;52.388;13.390;2023-02-02T09:30:42;100884.28;;;4.78;100.00
36092;BME280;22147;52.388;13.390;2023-02-02T09:33:12;100887.88;;;4.79;100.00
36092;BME280;22147;52.388;13.390;2023-02-02T09:35:42;100897.53;;;4.71;100.00
36092;BME280;22147;52.388;13.390;2023-02-02T09:38:12;100902.94;;;4.86;100.00
36092;BME280;22147;52.388;13.390;2023-02-02T09:40:42;100908.81;;;4.75;100.00
36092;BME280;22147;52.388;13.390;2023-02-02T09:43:56;100905.47;;;4.78;100.00
36092;BME280;22147;52.388;13.390;2023-02-02T09:47:07;100921.44;;;4.76;100.00
36092;BME280;22147;52.388;13.390;2023-02-02T09:50:21;100919.38;;;4.52;100.00
36092;BME280;22147;52.388;13.390;2023-02-02T09:56:37;100921.53;;;4.60;100.00
36092;BME280;22147;52.388;13.390;2023-02-02T09:59:27;100927.28;;;4.69;100.00
36092;BME280;22147;52.388;13.390;2023-02-02T10:02:21;100917.56;;;4.87;100.00
36092;BME280;22147;52.388;13.390;2023-02-02T10:05:12;100918.91;;;4.84;100.00
36092;BME280;22147;52.388;13.390;2023-02-02T10:07:55;100931.75;;;4.99;100.00
36092;BME280;22147;52.388;13.390;2023-02-02T10:10:40;100921.16;;;4.77;100.00
36092;BME280;22147;52.388;13.390;2023-02-02T10:13:22;100930.78;;;4.80;100.00
36092;BME280;22147;52.388;13.390;2023-02-02T10:16:16;100928.03;;;4.80;100.00
36092;BME280;22147;52.388;13.390;2023-02-02T10:19:04;100932.38;;;4.91;100.00
36092;BME280;22147;52.388;13.390;2023-02-02T10:24:24;100939.94;;;5.09;100.00
36092;BME280;22147;52.388;13.390;2023-02-02T10:27:36;100937.72;;;5.12;100.00
36092;BME280;22147;52.388;13.390;2023-02-02T10:30:18;100931.94;;;5.13;100.00
36092;BME280;22147;52.388;13.390;2023-02-02T10:33:05;100942.00;;;4.94;100.00
36092;BME280;22147;52.388;13.390;2023-02-02T10:39:22;100953.50;;;5.06;100.00
36092;BME280;22147;52.388;13.390;2023-02-02T10:42:18;100957.38;;;4.95;100.00
36092;BME280;22147;52.388;13.390;2023-02-02T10:45:18;100954.47;;;4.76;100.00
36092;BME280;22147;52.388;13.390;2023-02-02T10:47:50;100964.13;;;4.73;100.00
36092;BME280;22147;52.388;13.390;2023-02-02T10:50:21;100963.09;;;4.59;100.00
36092;BME280;22147;52.388;13.390;2023-02-02T10:52:59;100961.63;;;4.72;100.00
36092;BME280;22147;52.388;13.390;2023-02-02T10:55:45;100956.94;;;4.77;100.00
36092;BME280;22147;52.388;13.390;2023-02-02T10:58:28;100969.69;;;5.07;100.00
36092;BME280;22147;52.388;13.390;2023-02-02T11:01:38;100968.81;;;5.57;100.00
36092;BME280;22147;52.388;13.390;2023-02-02T11:04:10;100977.06;;;5.86;100.00
36092;BME280;22147;52.388;13.390;2023-02-02T11:06:58;100989.69;;;5.97;100.00
36092;BME280;22147;52.388;13.390;2023-02-02T11:09:37;100985.50;;;6.00;100.00
36092;BME280;22147;52.388;13.390;2023-02-02T11:12:24;101002.94;;;5.90;100.00
36092;BME280;22147;52.388;13.390;2023-02-02T11:15:26;101001.94;;;5.76;100.00
36092;BME280;22147;52.388;13.390;2023-02-02T11:18:29;100998.34;;;5.46;100.00
36092;BME280;22147;52.388;13.390;2023-02-02T11:20:59;101009.13;;;5.42;100.00
36092;BME280;22147;52.388;13.390;2023-02-02T11:23:27;101006.31;;;5.47;100.00
36092;BME280;22147;52.388;13.390;2023-02-02T11:26:00;101005.03;;;5.40;100.00
36092;BME280;22147;52.388;13.390;2023-02-02T11:28:35;101008.66;;;5.30;100.00
36092;BME280;22147;52.388;13.390;2023-02-02T11:31:06;101003.97;;;5.30;100.00
36092;BME280;22147;52.388;13.390;2023-02-02T11:33:36;101006.84;;;5.49;100.00
36092;BME280;22147;52.388;13.390;2023-02-02T11:36:20;101022.53;;;5.54;100.00
36092;BME280;22147;52.388;13.390;2023-02-02T11:39:20;101024.41;;;5.59;100.00
36092;BME280;22147;52.388;13.390;2023-02-02T11:41:56;101017.22;;;5.63;100.00
36092;BME280;22147;52.388;13.390;2023-02-02T11:44:31;101015.94;;;5.50;100.00
36092;BME280;22147;52.388;13.390;2023-02-02T11:47:03;101018.81;;;5.35;100.00
36092;BME280;22147;52.388;13.390;2023-02-02T11:49:42;101022.56;;;5.49;100.00
36092;BME280;22147;52.388;13.390;2023-02-02T11:52:25;101031.66;;;5.49;100.00
36092;BME280;22147;52.388;13.390;2023-02-02T11:55:15;101034.75;;;5.43;100.00
36092;BME280;22147;52.388;13.390;2023-02-02T11:58:25;101031.16;;;5.42;100.00
36092;BME280;22147;52.388;13.390;2023-02-02T12:01:01;101035.38;;;5.29;100.00
36092;BME280;22147;52.388;13.390;2023-02-02T12:03:37;101036.63;;;5.47;100.00
36092;BME280;22147;52.388;13.390;2023-02-02T12:06:35;101037.34;;;5.24;100.00
36092;BME280;22147;52.388;13.390;2023-02-02T12:09:23;101039.66;;;5.06;100.00
36092;BME280;22147;52.388;13.390;2023-02-02T12:27:34;101044.25;;;5.16;100.00
36092;BME280;22147;52.388;13.390;2023-02-02T12:34:22;101104.47;;;4.63;100.00
36092;BME280;22147;52.388;13.390;2023-02-02T12:37:39;101112.19;;;3.53;100.00
36092;BME280;22147;52.388;13.390;2023-02-02T12:43:47;101103.03;;;3.17;100.00
36092;BME280;22147;52.388;13.390;2023-02-02T13:00:29;101110.53;;;3.47;100.00
36092;BME280;22147;52.388;13.390;2023-02-02T13:03:30;101117.16;;;3.56;100.00
36092;BME280;22147;52.388;13.390;2023-02-02T13:06:21;101120.41;;;3.38;100.00
36092;BME280;22147;52.388;13.390;2023-02-02T13:09:41;101120.94;;;3.35;100.00
36092;BME280;22147;52.388;13.390;2023-02-02T13:12:21;101124.00;;;3.64;100.00
36092;BME280;22147;52.388;13.390;2023-02-02T13:15:00;101125.38;;;3.51;100.00
36092;BME280;22147;52.388;13.390;2023-02-02T13:21:11;101126.69;;;3.28;100.00
36092;BME280;22147;52.388;13.390;2023-02-02T13:23:51;101138.28;;;3.45;100.00
36092;BME280;22147;52.388;13.390;2023-02-02T13:26:37;101147.88;;;3.53;100.00
36092;BME280;22147;52.388;13.390;2023-02-02T13:29:25;101153.69;;;3.52;100.00
36092;BME280;22147;52.388;13.390;2023-02-02T13:32:30;101165.22;;;3.59;100.00
36092;BME280;22147;52.388;13.390;2023-02-02T13:35:22;101160.84;;;3.63;100.00
36092;BME280;22147;52.388;13.390;2023-02-02T13:38:26;101164.66;;;3.57;100.00
36092;BME280;22147;52.388;13.390;2023-02-02T13:41:09;101180.91;;;3.69;100.00
36092;BME280;22147;52.388;13.390;2023-02-02T13:47:10;101181.22;;;3.82;100.00
36092;BME280;22147;52.388;13.390;2023-02-02T13:50:03;101185.63;;;3.88;100.00
36092;BME280;22147;52.388;13.390;2023-02-02T13:56:35;101195.53;;;4.10;100.00
36092;BME280;22147;52.388;13.390;2023-02-02T14:02:52;101201.59;;;4.12;100.00
36092;BME280;22147;52.388;13.390;2023-02-02T14:05:41;101207.09;;;4.07;100.00
36092;BME280;22147;52.388;13.390;2023-02-02T14:08:15;101226.59;;;4.05;100.00
36092;BME280;22147;52.388;13.390;2023-02-02T14:13:52;101226.63;;;4.16;100.00
36092;BME280;22147;52.388;13.390;2023-02-02T14:16:48;101234.31;;;4.19;100.00
36092;BME280;22147;52.388;13.390;2023-02-02T14:24:46;101248.88;;;4.14;100.00
36092;BME280;22147;52.388;13.390;2023-02-02T14:37:56;101277.16;;;3.94;100.00
36092;BME280;22147;52.388;13.390;2023-02-02T14:43:51;101290.91;;;3.94;100.00
36092;BME280;22147;52.388;13.390;2023-02-02T14:49:18;101311.69;;;3.70;100.00
36092;BME280;22147;52.388;13.390;2023-02-02T14:51:59;101314.97;;;3.72;100.00
36092;BME280;22147;52.388;13.390;2023-02-02T14:54:41;101322.09;;;3.67;100.00
36092;BME280;22147;52.388;13.390;2023-02-02T14:57:40;101333.00;;;3.52;100.00
36092;BME280;22147;52.388;13.390;2023-02-02T15:00:24;101337.44;;;3.58;100.00
36092;BME280;22147;52.388;13.390;2023-02-02T15:14:55;101358.78;;;3.41;100.00
36092;BME280;22147;52.388;13.390;2023-02-02T15:20:25;101367.28;;;3.44;100.00
36092;BME280;22147;52.388;13.390;2023-02-02T15:26:16;101385.31;;;3.30;100.00
36092;BME280;22147;52.388;13.390;2023-02-02T15:29:06;101389.03;;;3.14;100.00
36092;BME280;22147;52.388;13.390;2023-02-02T15:31:51;101395.56;;;3.08;100.00